Menu Close Menu
Station Historical Data
Daily Summary for December 2, 2017 Units:  Metric    English   Both
« Previous Day
Next Day »
Daily Weekly Monthly Yearly Custom
  High: Low: Average:
Temperature: 18.7 °C 8.2 °C 12.8 °C
Dew Point: 13.6 °C 7.2 °C 10.3 °C
Humidity: 94% 68% 86%
Wind Speed: 7.4km/h 0km/h 0.5km/h
Wind Gust: 7.4km/h - -
Wind- - SSW
Pressure: 1023.9 hPa 1020.2 hPa -
Precipitation: 0 mm    
Historical Graphs
 
 
Tabular Data for December 2, 2017
Time Temperature Dew Point Pressure Wind Wind Speed Wind Gust Humidity Rainfall Rate (Hourly) solar Conditions
00:08 9.5 °C 8.4 °C 1021.9 hPa Calm     93% 0 mm WeatherDisplay:10.37 W/m2 CLR
00:18 9.4 °C 8.3 °C 1021.6 hPa Calm     93% 0 mm WeatherDisplay:10.37 W/m2 CLR
00:19 9.4 °C 8.3 °C 1021.6 hPa Calm     93% 0 mm WeatherDisplay:10.37 W/m2
00:23 9.3 °C 8.3 °C 1021.6 hPa Calm     93% 0 mm WeatherDisplay:10.37 W/m2 CLR
00:28 9.2 °C 8.2 °C 1021.6 hPa Calm     93% 0 mm WeatherDisplay:10.37 W/m2 CLR
00:29 9.2 °C 8.1 °C 1021.6 hPa Calm     93% 0 mm WeatherDisplay:10.37 W/m2
00:33 9.2 °C 8.1 °C 1021.6 hPa Calm     93% 0 mm WeatherDisplay:10.37 W/m2 CLR
00:34 9.2 °C 8.1 °C 1021.6 hPa Calm     93% 0 mm WeatherDisplay:10.37 W/m2
00:38 9.2 °C 8.1 °C 1021.6 hPa Calm     93% 0 mm WeatherDisplay:10.37 W/m2 CLR
00:39 9.2 °C 8.1 °C 1021.6 hPa Calm     93% 0 mm WeatherDisplay:10.37 W/m2 CLR
00:44 9.1 °C 8.1 °C 1021.6 hPa Calm     93% 0 mm WeatherDisplay:10.37 W/m2
00:45 9.1 °C 8.1 °C 1021.6 hPa Calm     93% 0 mm WeatherDisplay:10.37 W/m2 CLR
00:49 9.2 °C 8.1 °C 1021.6 hPa Calm     93% 0 mm WeatherDisplay:10.37 W/m2
00:54 9.3 °C 8.2 °C 1021.6 hPa Calm     93% 0 mm WeatherDisplay:10.37 W/m2
00:55 9.3 °C 8.2 °C 1021.6 hPa Calm     93% 0 mm WeatherDisplay:10.37 W/m2 CLR
00:59 9.3 °C 8.3 °C 1021.6 hPa Calm     93% 0 mm WeatherDisplay:10.37 W/m2
01:04 9.4 °C 8.4 °C 1021.9 hPa Calm     93% 0 mm WeatherDisplay:10.37 W/m2
01:05 9.4 °C 8.4 °C 1021.9 hPa Calm     93% 0 mm WeatherDisplay:10.37 W/m2 SCT
01:09 9.6 °C 8.7 °C 1021.6 hPa Calm     94% 0 mm WeatherDisplay:10.37 W/m2
01:10 9.6 °C 8.7 °C 1021.6 hPa Calm     94% 0 mm WeatherDisplay:10.37 W/m2 SCT
01:15 9.6 °C 8.7 °C 1021.6 hPa Calm     94% 0 mm WeatherDisplay:10.37 W/m2 SCT
01:19 9.6 °C 8.7 °C 1021.6 hPa Calm     94% 0 mm WeatherDisplay:10.37 W/m2
01:20 9.6 °C 8.7 °C 1021.6 hPa Calm     94% 0 mm WeatherDisplay:10.37 W/m2 SCT
01:24 9.6 °C 8.5 °C 1021.6 hPa Calm     93% 0 mm WeatherDisplay:10.37 W/m2
01:29 9.5 °C 8.4 °C 1021.6 hPa Calm     93% 0 mm WeatherDisplay:10.37 W/m2
01:31 9.5 °C 8.4 °C 1021.6 hPa Calm     93% 0 mm WeatherDisplay:10.37 W/m2 SCT
01:34 9.4 °C 8.4 °C 1021.6 hPa Calm     93% 0 mm WeatherDisplay:10.37 W/m2
01:36 9.4 °C 8.3 °C 1021.6 hPa Calm     93% 0 mm WeatherDisplay:10.37 W/m2 SCT
01:39 9.3 °C 8.2 °C 1021.6 hPa Calm     93% 0 mm WeatherDisplay:10.37 W/m2
01:41 9.3 °C 8.2 °C 1021.6 hPa Calm     93% 0 mm WeatherDisplay:10.37 W/m2 SCT
01:44 9.3 °C 8.2 °C 1021.6 hPa Calm     93% 0 mm WeatherDisplay:10.37 W/m2
01:46 9.3 °C 8.2 °C 1021.6 hPa Calm     93% 0 mm WeatherDisplay:10.37 W/m2 SCT
01:49 9.2 °C 8.2 °C 1021.6 hPa Calm     93% 0 mm WeatherDisplay:10.37 W/m2
01:51 9.2 °C 8.2 °C 1021.6 hPa Calm     93% 0 mm WeatherDisplay:10.37 W/m2 SCT
01:54 9.2 °C 8.1 °C 1021.6 hPa Calm     93% 0 mm WeatherDisplay:10.37 W/m2
01:56 9.2 °C 8.1 °C 1021.6 hPa Calm     93% 0 mm WeatherDisplay:10.37 W/m2 SCT
01:59 9.2 °C 8.1 °C 1021.9 hPa Calm     93% 0 mm WeatherDisplay:10.37 W/m2
02:01 9.2 °C 8.1 °C 1021.6 hPa Calm     93% 0 mm WeatherDisplay:10.37 W/m2 CLR
02:04 9.1 °C 8.1 °C 1021.6 hPa Calm     93% 0 mm WeatherDisplay:10.37 W/m2
02:06 9.1 °C 8 °C 1021.6 hPa Calm     93% 0 mm WeatherDisplay:10.37 W/m2 CLR
02:09 8.9 °C 7.9 °C 1021.2 hPa Calm     93% 0 mm WeatherDisplay:10.37 W/m2
02:11 8.9 °C 7.9 °C 1021.2 hPa Calm     93% 0 mm WeatherDisplay:10.37 W/m2 CLR
02:14 8.9 °C 7.8 °C 1021.2 hPa Calm     93% 0 mm WeatherDisplay:10.37 W/m2
02:19 8.9 °C 7.9 °C 1021.6 hPa Calm     93% 0 mm WeatherDisplay:10.37 W/m2
02:21 9 °C 7.9 °C 1021.6 hPa Calm     93% 0 mm WeatherDisplay:10.37 W/m2 CLR
02:24 9.1 °C 8 °C 1021.6 hPa Calm     93% 0 mm WeatherDisplay:10.37 W/m2
02:27 9.1 °C 8 °C 1021.6 hPa Calm     93% 0 mm WeatherDisplay:10.37 W/m2 CLR
02:29 9 °C 7.9 °C 1021.6 hPa Calm     93% 0 mm WeatherDisplay:10.37 W/m2
02:32 9 °C 7.9 °C 1021.6 hPa Calm     93% 0 mm WeatherDisplay:10.37 W/m2 CLR
02:34 8.9 °C 7.9 °C 1021.6 hPa Calm     93% 0 mm WeatherDisplay:10.37 W/m2
02:37 8.9 °C 7.9 °C 1021.6 hPa Calm     93% 0 mm WeatherDisplay:10.37 W/m2 CLR
02:39 9 °C 7.9 °C 1021.9 hPa Calm     93% 0 mm WeatherDisplay:10.37 W/m2
02:42 9.1 °C 8.2 °C 1021.9 hPa Calm     94% 0 mm WeatherDisplay:10.37 W/m2 CLR
02:44 9.2 °C 8.3 °C 1021.9 hPa Calm     94% 0 mm WeatherDisplay:10.37 W/m2
02:47 9.2 °C 8.3 °C 1021.9 hPa Calm     94% 0 mm WeatherDisplay:10.37 W/m2 CLR
02:49 9.1 °C 8.1 °C 1021.9 hPa Calm     93% 0 mm WeatherDisplay:10.37 W/m2
02:52 9.1 °C 8 °C 1021.6 hPa Calm     93% 0 mm WeatherDisplay:10.37 W/m2 CLR
02:54 9 °C 7.9 °C 1021.6 hPa Calm     93% 0 mm WeatherDisplay:10.37 W/m2
02:59 8.9 °C 7.9 °C 1021.6 hPa Calm     93% 0 mm WeatherDisplay:10.37 W/m2
03:03 8.9 °C 7.8 °C 1021.6 hPa Calm     93% 0 mm WeatherDisplay:10.37 W/m2 BKN
03:04 8.9 °C 7.8 °C 1021.6 hPa Calm     93% 0 mm WeatherDisplay:10.37 W/m2
03:08 8.9 °C 7.9 °C 1021.6 hPa Calm     93% 0 mm WeatherDisplay:10.37 W/m2 BKN
03:09 9 °C 7.9 °C 1021.6 hPa Calm     93% 0 mm WeatherDisplay:10.37 W/m2
03:13 9.1 °C 8.2 °C 1021.6 hPa Calm     94% 0 mm WeatherDisplay:10.37 W/m2 BKN
03:14 9.1 °C 8.2 °C 1021.6 hPa Calm     94% 0 mm WeatherDisplay:10.37 W/m2
03:18 9 °C 7.9 °C 1021.6 hPa Calm     93% 0 mm WeatherDisplay:10.37 W/m2 BKN
03:19 8.9 °C 7.9 °C 1021.6 hPa Calm     93% 0 mm WeatherDisplay:10.37 W/m2
03:23 8.9 °C 7.9 °C 1021.6 hPa Calm     93% 0 mm WeatherDisplay:10.37 W/m2 BKN
03:24 8.9 °C 7.8 °C 1021.6 hPa Calm     93% 0 mm WeatherDisplay:10.37 W/m2
03:28 8.9 °C 7.8 °C 1021.6 hPa Calm     93% 0 mm WeatherDisplay:10.37 W/m2 BKN
03:29 8.8 °C 7.8 °C 1021.6 hPa Calm     93% 0 mm WeatherDisplay:10.37 W/m2
03:34 8.8 °C 7.7 °C 1021.6 hPa Calm     93% 0 mm WeatherDisplay:10.37 W/m2
03:38 8.7 °C 7.7 °C 1021.6 hPa Calm     93% 0 mm WeatherDisplay:10.37 W/m2 BKN
03:39 8.7 °C 7.7 °C 1021.6 hPa Calm     93% 0 mm WeatherDisplay:10.37 W/m2
03:43 8.7 °C 7.7 °C 1021.6 hPa Calm     93% 0 mm WeatherDisplay:10.37 W/m2 BKN
03:44 8.7 °C 7.7 °C 1021.2 hPa Calm     93% 0 mm WeatherDisplay:10.37 W/m2
03:49 8.7 °C 7.6 °C 1021.6 hPa Calm     93% 0 mm WeatherDisplay:10.37 W/m2
03:58 8.7 °C 7.6 °C 1021.6 hPa Calm     93% 0 mm WeatherDisplay:10.37 W/m2 BKN
03:59 8.7 °C 7.6 °C 1021.6 hPa Calm     93% 0 mm WeatherDisplay:10.37 W/m2
04:04 8.6 °C 7.6 °C 1021.6 hPa Calm     93% 0 mm WeatherDisplay:10.37 W/m2 BKN
04:09 8.7 °C 7.6 °C 1021.6 hPa Calm     93% 0 mm WeatherDisplay:10.37 W/m2
04:14 8.7 °C 7.6 °C 1021.6 hPa Calm     93% 0 mm WeatherDisplay:10.37 W/m2 BKN
04:19 8.7 °C 7.8 °C 1021.6 hPa Calm     94% 0 mm WeatherDisplay:10.37 W/m2 BKN
04:24 8.7 °C 7.8 °C 1021.6 hPa Calm     94% 0 mm WeatherDisplay:10.37 W/m2 BKN
04:29 8.7 °C 7.6 °C 1021.6 hPa Calm     93% 0 mm WeatherDisplay:10.37 W/m2
04:34 8.7 °C 7.6 °C 1021.6 hPa Calm     93% 0 mm WeatherDisplay:10.37 W/m2 BKN
04:39 8.7 °C 7.6 °C 1021.6 hPa Calm     93% 0 mm WeatherDisplay:10.37 W/m2 BKN
04:44 8.7 °C 7.6 °C 1021.9 hPa Calm     93% 0 mm WeatherDisplay:10.37 W/m2 BKN
04:49 8.7 °C 7.6 °C 1021.9 hPa Calm     93% 0 mm WeatherDisplay:10.37 W/m2 BKN
04:54 8.7 °C 7.8 °C 1021.9 hPa Calm     94% 0 mm WeatherDisplay:10.37 W/m2 BKN
04:59 8.7 °C 7.8 °C 1021.9 hPa Calm     94% 0 mm WeatherDisplay:10.37 W/m2 BKN
05:04 8.7 °C 7.8 °C 1021.6 hPa Calm     94% 0 mm WeatherDisplay:10.37 W/m2
05:09 8.7 °C 7.8 °C 1021.9 hPa Calm     94% 0 mm WeatherDisplay:10.37 W/m2 BKN
05:14 8.7 °C 7.8 °C 1021.9 hPa Calm     94% 0 mm WeatherDisplay:10.37 W/m2
05:19 8.7 °C 7.8 °C 1021.9 hPa Calm     94% 0 mm WeatherDisplay:10.37 W/m2
05:20 8.7 °C 7.8 °C 1021.9 hPa Calm     94% 0 mm WeatherDisplay:10.37 W/m2 BKN
05:24 8.6 °C 7.7 °C 1021.9 hPa Calm     94% 0 mm WeatherDisplay:10.37 W/m2
05:25 8.6 °C 7.7 °C 1021.9 hPa Calm     94% 0 mm WeatherDisplay:10.37 W/m2 BKN
05:29 8.6 °C 7.7 °C 1021.9 hPa Calm     94% 0 mm WeatherDisplay:10.37 W/m2
05:39 8.6 °C 7.7 °C 1022.2 hPa Calm     94% 0 mm WeatherDisplay:10.37 W/m2
05:40 8.6 °C 7.7 °C 1022.2 hPa Calm     94% 0 mm WeatherDisplay:10.37 W/m2 BKN
05:44 8.5 °C 7.4 °C 1022.2 hPa Calm     93% 0 mm WeatherDisplay:10.37 W/m2
05:45 8.5 °C 7.4 °C 1022.2 hPa Calm     93% 0 mm WeatherDisplay:10.37 W/m2 BKN
05:49 8.4 °C 7.4 °C 1022.2 hPa Calm     93% 0 mm WeatherDisplay:10.37 W/m2
05:54 8.4 °C 7.4 °C 1022.2 hPa Calm     93% 0 mm WeatherDisplay:10.37 W/m2
05:55 8.4 °C 7.3 °C 1022.2 hPa Calm     93% 0 mm WeatherDisplay:10.37 W/m2 BKN
05:59 8.3 °C 7.3 °C 1022.2 hPa Calm     93% 0 mm WeatherDisplay:10.37 W/m2
06:00 8.3 °C 7.3 °C 1022.2 hPa Calm     93% 0 mm WeatherDisplay:10.37 W/m2 BKN
06:04 8.3 °C 7.2 °C 1022.2 hPa Calm     93% 0 mm WeatherDisplay:10.37 W/m2
06:06 8.3 °C 7.2 °C 1022.2 hPa Calm     93% 0 mm WeatherDisplay:10.37 W/m2 CLR
06:09 8.3 °C 7.2 °C 1022.2 hPa Calm     93% 0 mm WeatherDisplay:10.37 W/m2
06:11 8.3 °C 7.2 °C 1022.2 hPa Calm     93% 0 mm WeatherDisplay:10.37 W/m2 CLR
06:14 8.3 °C 7.2 °C 1022.2 hPa Calm     93% 0 mm WeatherDisplay:10.37 W/m2
06:19 8.2 °C 7.2 °C 1022.2 hPa Calm     93% 0 mm WeatherDisplay:10.37 W/m2
06:21 8.2 °C 7.2 °C 1022.2 hPa Calm     93% 0 mm WeatherDisplay:10.37 W/m2 CLR
06:24 8.2 °C 7.2 °C 1021.9 hPa Calm     93% 0 mm WeatherDisplay:10.37 W/m2
06:26 8.2 °C 7.2 °C 1022.2 hPa Calm     93% 0 mm WeatherDisplay:10.37 W/m2 CLR
06:29 8.3 °C 7.4 °C 1022.2 hPa Calm     94% 0 mm WeatherDisplay:10.37 W/m2
06:31 8.3 °C 7.4 °C 1022.2 hPa Calm     94% 0 mm WeatherDisplay:10.37 W/m2 CLR
06:34 8.3 °C 7.4 °C 1022.2 hPa Calm     94% 0 mm WeatherDisplay:10.37 W/m2
06:36 8.3 °C 7.4 °C 1022.2 hPa Calm     94% 0 mm WeatherDisplay:10.37 W/m2 CLR
06:39 8.4 °C 7.6 °C 1022.2 hPa Calm     94% 0 mm WeatherDisplay:10.37 W/m2
06:41 8.4 °C 7.6 °C 1022.2 hPa Calm     94% 0 mm WeatherDisplay:10.37 W/m2 CLR
06:44 8.4 °C 7.6 °C 1022.2 hPa Calm     94% 0 mm WeatherDisplay:10.37 W/m2
06:51 8.8 °C 7.9 °C 1022.6 hPa Calm     94% 0 mm WeatherDisplay:10.37 W/m2 CLR
06:54 9.1 °C 8.2 °C 1022.6 hPa Calm     94% 0 mm WeatherDisplay:10.37 W/m2
06:56 9.2 °C 8.3 °C 1022.6 hPa Calm     94% 0 mm WeatherDisplay:10.37 W/m2 CLR
06:59 9.6 °C 8.6 °C 1022.6 hPa Calm     94% 0 mm WeatherDisplay:10.37 W/m2
07:07 9.8 °C 8.8 °C 1022.9 hPa Calm     94% 0 mm WeatherDisplay:10.37 W/m2 CLR
07:09 9.8 °C 8.9 °C 1022.6 hPa Calm     94% 0 mm WeatherDisplay:10.37 W/m2
07:12 9.8 °C 8.9 °C 1022.9 hPa Calm     94% 0 mm WeatherDisplay:10.37 W/m2 BKN
07:17 10 °C 9.1 °C 1022.9 hPa Calm     94% 0 mm WeatherDisplay:10.37 W/m2 BKN
07:19 10.1 °C 9.2 °C 1022.9 hPa Calm     94% 0 mm WeatherDisplay:10.37 W/m2
07:22 10.2 °C 9.3 °C 1022.9 hPa Calm     94% 0 mm WeatherDisplay:10.37 W/m2 BKN
07:24 10.2 °C 9.2 °C 1022.9 hPa Calm     94% 0 mm WeatherDisplay:10.37 W/m2
07:27 10 °C 9.1 °C 1022.9 hPa Calm     94% 0 mm WeatherDisplay:10.37 W/m2 BKN
07:29 9.7 °C 8.8 °C 1022.9 hPa Calm     94% 0 mm WeatherDisplay:10.37 W/m2
07:32 9.6 °C 8.6 °C 1022.9 hPa Calm     94% 0 mm WeatherDisplay:10.37 W/m2 BKN
07:34 9.5 °C 8.6 °C 1022.9 hPa Calm     94% 0 mm WeatherDisplay:10.37 W/m2
07:37 9.5 °C 8.6 °C 1022.6 hPa Calm     94% 0 mm WeatherDisplay:10.37 W/m2 BKN
07:39 9.5 °C 8.6 °C 1022.6 hPa Calm     94% 0 mm WeatherDisplay:10.37 W/m2
07:42 9.5 °C 8.6 °C 1022.9 hPa Calm     94% 0 mm WeatherDisplay:10.37 W/m2 BKN
07:44 9.6 °C 8.7 °C 1022.9 hPa Calm     94% 0 mm WeatherDisplay:10.37 W/m2
07:47 9.7 °C 8.7 °C 1022.6 hPa Calm     94% 0 mm WeatherDisplay:10.37 W/m2 BKN
07:49 9.7 °C 8.7 °C 1022.9 hPa Calm     94% 0 mm WeatherDisplay:10.37 W/m2
07:52 9.6 °C 8.7 °C 1022.9 hPa Calm     94% 0 mm WeatherDisplay:10.37 W/m2 BKN
07:54 9.6 °C 8.7 °C 1022.6 hPa Calm     94% 0 mm WeatherDisplay:10.37 W/m2
07:59 9.6 °C 8.7 °C 1022.9 hPa Calm     94% 0 mm WeatherDisplay:10.37 W/m2
08:02 9.7 °C 8.7 °C 1022.9 hPa Calm     94% 0 mm WeatherDisplay:10.37 W/m2 BKN
08:04 9.8 °C 8.8 °C 1023.2 hPa Calm     94% 0 mm WeatherDisplay:10.37 W/m2
08:07 10.1 °C 9.1 °C 1023.2 hPa Calm     94% 0 mm WeatherDisplay:10.37 W/m2 BKN
08:09 10.2 °C 9.2 °C 1023.2 hPa Calm     94% 0 mm WeatherDisplay:10.37 W/m2
08:14 10.1 °C 9.1 °C 1023.2 hPa Calm     94% 0 mm WeatherDisplay:10.37 W/m2
08:18 10.1 °C 9.1 °C 1023.2 hPa Calm     94% 0 mm WeatherDisplay:10.37 W/m2 FEW
08:19 10.2 °C 9.2 °C 1023.2 hPa Calm     94% 0 mm WeatherDisplay:10.37 W/m2
08:23 10.3 °C 9.4 °C 1023.2 hPa Calm     94% 0 mm WeatherDisplay:10.37 W/m2 FEW
08:29 10.3 °C 9.3 °C 1023.2 hPa Calm     94% 0 mm WeatherDisplay:10.37 W/m2
08:33 10.3 °C 9.3 °C 1023.2 hPa Calm     94% 0 mm WeatherDisplay:10.37 W/m2 FEW
08:34 10.4 °C 9.4 °C 1023.6 hPa Calm     94% 0 mm WeatherDisplay:10.37 W/m2
08:38 10.5 °C 9.6 °C 1023.6 hPa Calm     94% 0 mm WeatherDisplay:10.37 W/m2 FEW
08:39 10.6 °C 9.6 °C 1023.6 hPa Calm     94% 0 mm WeatherDisplay:10.37 W/m2
08:44 10.8 °C 9.8 °C 1023.6 hPa Calm     94% 0 mm WeatherDisplay:10.37 W/m2
08:48 10.9 °C 9.9 °C 1023.6 hPa Calm     94% 0 mm WeatherDisplay:10.37 W/m2 FEW
08:49 10.9 °C 10 °C 1023.6 hPa Calm     94% 0 mm WeatherDisplay:10.37 W/m2
08:54 11 °C 10.1 °C 1023.6 hPa Calm     94% 0 mm WeatherDisplay:10.37 W/m2 FEW
08:59 11.2 °C 10.3 °C 1023.6 hPa Calm     94% 0 mm WeatherDisplay:10.37 W/m2
09:04 11.3 °C 10.4 °C 1023.6 hPa Calm     94% 0 mm WeatherDisplay:10.37 W/m2 BKN
09:09 11.4 °C 10.5 °C 1023.6 hPa Calm     94% 0 mm WeatherDisplay:10.37 W/m2 BKN
09:14 11.6 °C 10.6 °C 1023.9 hPa Calm     94% 0 mm WeatherDisplay:10.37 W/m2 BKN
09:19 11.6 °C 10.7 °C 1023.6 hPa Calm     94% 0 mm WeatherDisplay:10.37 W/m2 BKN
09:24 11.5 °C 10.6 °C 1023.6 hPa ESE 1.9 km/h   94% 0 mm WeatherDisplay:10.37 W/m2 BKN
09:29 11.6 °C 10.6 °C 1023.6 hPa ESE 1.9 km/h   94% 0 mm WeatherDisplay:10.37 W/m2 BKN
09:34 11.7 °C 10.7 °C 1023.6 hPa Calm   1.6 km/h 94% 0 mm WeatherDisplay:10.37 W/m2
09:39 11.7 °C 10.8 °C 1023.6 hPa Calm   1.6 km/h 94% 0 mm WeatherDisplay:10.37 W/m2
09:44 11.9 °C 10.9 °C 1023.6 hPa Calm     94% 0 mm WeatherDisplay:10.37 W/m2
09:49 12 °C 11.1 °C 1023.6 hPa Calm     94% 0 mm WeatherDisplay:10.37 W/m2
09:59 12.2 °C 11.1 °C 1023.6 hPa Calm   1.6 km/h 93% 0 mm WeatherDisplay:10.37 W/m2
10:00 12.2 °C 11.1 °C 1023.6 hPa ESE 1.9 km/h   93% 0 mm WeatherDisplay:10.37 W/m2 BKN
10:04 12.3 °C 11.2 °C 1023.6 hPa Calm     93% 0 mm WeatherDisplay:10.37 W/m2
10:05 12.3 °C 11.2 °C 1023.6 hPa Calm     93% 0 mm WeatherDisplay:10.37 W/m2 BKN
10:09 12.5 °C 11.2 °C 1023.6 hPa Calm   1.6 km/h 92% 0 mm WeatherDisplay:10.37 W/m2
10:10 12.5 °C 11.2 °C 1023.6 hPa Calm   1.6 km/h 92% 0 mm WeatherDisplay:10.37 W/m2 BKN
10:14 12.7 °C 11.2 °C 1023.6 hPa SW 1.6 km/h 3.2 km/h 91% 0 mm WeatherDisplay:10.37 W/m2
10:15 12.7 °C 11.2 °C 1023.6 hPa ESE 1.9 km/h 1.9 km/h 91% 0 mm WeatherDisplay:10.37 W/m2 BKN
10:19 12.9 °C 11.5 °C 1023.6 hPa Calm   3.2 km/h 91% 0 mm WeatherDisplay:10.37 W/m2
10:20 12.9 °C 11.5 °C 1023.2 hPa West 3.7 km/h   91% 0 mm WeatherDisplay:10.37 W/m2 BKN
10:24 13.3 °C 11.7 °C 1023.6 hPa Calm   1.6 km/h 90% 0 mm WeatherDisplay:10.37 W/m2
10:25 13.2 °C 11.6 °C 1023.6 hPa West 3.7 km/h 3.7 km/h 90% 0 mm WeatherDisplay:10.37 W/m2 BKN
10:29 13.3 °C 11.4 °C 1023.6 hPa Calm   6.4 km/h 88% 0 mm WeatherDisplay:10.37 W/m2
10:30 13.3 °C 11.4 °C 1023.6 hPa West 7.4 km/h   88% 0 mm WeatherDisplay:10.37 W/m2 BKN
10:34 13.5 °C 11.6 °C 1023.6 hPa Calm   1.6 km/h 88% 0 mm WeatherDisplay:10.37 W/m2
10:35 13.6 °C 11.6 °C 1023.6 hPa West 7.4 km/h   88% 0 mm WeatherDisplay:10.37 W/m2 BKN
10:39 13.9 °C 12 °C 1023.2 hPa Calm   1.6 km/h 88% 0 mm WeatherDisplay:10.37 W/m2
10:41 13.9 °C 11.8 °C 1023.2 hPa West 1.9 km/h   87% 0 mm WeatherDisplay:10.37 W/m2 BKN
10:44 14.3 °C 11.8 °C 1023.2 hPa Calm   1.6 km/h 85% 0 mm WeatherDisplay:10.37 W/m2
10:49 14.8 °C 12.5 °C 1023.2 hPa Calm   1.6 km/h 86% 0 mm WeatherDisplay:10.37 W/m2
10:51 14.9 °C 12.4 °C 1023.2 hPa West 1.9 km/h 1.9 km/h 85% 0 mm WeatherDisplay:10.37 W/m2 BKN
10:54 15.2 °C 12.3 °C 1023.2 hPa Calm   1.6 km/h 83% 0 mm WeatherDisplay:10.37 W/m2
10:56 15.3 °C 12.4 °C 1023.2 hPa WNW 1.9 km/h 1.9 km/h 83% 0 mm WeatherDisplay:10.37 W/m2 BKN
10:59 15.4 °C 12.4 °C 1023.2 hPa Calm   1.6 km/h 82% 0 mm WeatherDisplay:10.37 W/m2
11:04 15.7 °C 12.6 °C 1022.9 hPa Calm   3.2 km/h 82% 0 mm WeatherDisplay:10.37 W/m2
11:06 15.7 °C 12.4 °C 1023.2 hPa West 3.7 km/h 3.7 km/h 81% 0 mm WeatherDisplay:10.37 W/m2 BKN
11:09 15.8 °C 12.6 °C 1023.2 hPa Calm   1.6 km/h 81% 0 mm WeatherDisplay:10.37 W/m2
11:14 16.1 °C 12.8 °C 1022.9 hPa Calm   1.6 km/h 81% 0 mm WeatherDisplay:10.37 W/m2
11:16 16.1 °C 12.8 °C 1022.9 hPa West 1.9 km/h   81% 0 mm WeatherDisplay:10.37 W/m2 BKN
11:19 16.2 °C 12.5 °C 1022.9 hPa Calm   1.6 km/h 79% 0 mm WeatherDisplay:10.37 W/m2
11:21 16.1 °C 12.4 °C 1022.9 hPa West 1.9 km/h 1.9 km/h 79% 0 mm WeatherDisplay:10.37 W/m2 BKN
11:24 16.2 °C 12.7 °C 1022.9 hPa Calm   1.6 km/h 80% 0 mm WeatherDisplay:10.37 W/m2
11:26 16.2 °C 12.8 °C 1022.9 hPa West 1.9 km/h 1.9 km/h 80% 0 mm WeatherDisplay:10.37 W/m2 BKN
11:29 16.4 °C 12.8 °C 1022.9 hPa Calm   1.6 km/h 79% 0 mm WeatherDisplay:10.37 W/m2
11:34 16.7 °C 13.1 °C 1022.6 hPa Calm   1.6 km/h 79% 0 mm WeatherDisplay:10.37 W/m2
11:39 16.9 °C 12.8 °C 1022.6 hPa Calm   3.2 km/h 77% 0 mm WeatherDisplay:10.37 W/m2
11:41 16.9 °C 12.8 °C 1022.2 hPa WNW 3.7 km/h 3.7 km/h 77% 0 mm WeatherDisplay:10.37 W/m2 BKN
11:44 16.8 °C 12.7 °C 1022.2 hPa WNW 1.6 km/h 3.2 km/h 77% 0 mm WeatherDisplay:10.37 W/m2
11:47 16.7 °C 12.4 °C 1022.2 hPa WNW 3.7 km/h 3.7 km/h 76% 0 mm WeatherDisplay:10.37 W/m2 BKN
11:49 16.7 °C 12.7 °C 1021.9 hPa Calm   3.2 km/h 77% 0 mm WeatherDisplay:10.37 W/m2
11:52 16.8 °C 12.9 °C 1021.9 hPa West 3.7 km/h 3.7 km/h 78% 0 mm WeatherDisplay:10.37 W/m2 BKN
11:54 16.9 °C 12.9 °C 1021.9 hPa West 1.6 km/h 3.2 km/h 77% 0 mm WeatherDisplay:10.37 W/m2
11:57 17 °C 12.9 °C 1021.9 hPa West 3.7 km/h 3.7 km/h 77% 0 mm WeatherDisplay:10.37 W/m2 BKN
11:59 17.2 °C 13.1 °C 1021.6 hPa Calm   3.2 km/h 77% 0 mm WeatherDisplay:10.37 W/m2
12:02 17.3 °C 13.2 °C 1021.6 hPa WNW 3.7 km/h   77% 0 mm WeatherDisplay:10.37 W/m2 BKN
12:04 17.5 °C 13.2 °C 1021.6 hPa Calm   1.6 km/h 76% 0 mm WeatherDisplay:10.37 W/m2
12:07 17.7 °C 13.4 °C 1021.6 hPa WNW 1.9 km/h   76% 0 mm WeatherDisplay:10.37 W/m2 BKN
12:09 17.8 °C 13.1 °C 1021.2 hPa West 1.6 km/h 3.2 km/h 74% 0 mm WeatherDisplay:10.37 W/m2
12:12 17.8 °C 13.3 °C 1021.2 hPa NW 3.7 km/h   75% 0 mm WeatherDisplay:10.37 W/m2 BKN
12:17 17.8 °C 13.3 °C 1021.6 hPa NW 3.7 km/h   75% 0 mm WeatherDisplay:10.37 W/m2 BKN
12:19 17.9 °C 13.2 °C 1021.6 hPa Calm   1.6 km/h 74% 0 mm WeatherDisplay:10.37 W/m2
12:22 17.9 °C 13.2 °C 1021.6 hPa NNW 1.9 km/h   74% 0 mm WeatherDisplay:10.37 W/m2 BKN
12:24 17.9 °C 13.2 °C 1021.9 hPa Calm   1.6 km/h 74% 0 mm WeatherDisplay:10.37 W/m2
12:27 17.8 °C 12.9 °C 1021.6 hPa ESE 3.7 km/h 3.7 km/h 73% 0 mm WeatherDisplay:10.37 W/m2 BKN
12:29 17.8 °C 13.1 °C 1021.9 hPa Calm   3.2 km/h 74% 0 mm WeatherDisplay:10.37 W/m2
12:32 17.8 °C 12.9 °C 1021.6 hPa SSW 3.7 km/h 3.7 km/h 73% 0 mm WeatherDisplay:10.37 W/m2 BKN
12:37 18 °C 13.3 °C 1021.6 hPa SW 3.7 km/h 3.7 km/h 74% 0 mm WeatherDisplay:10.37 W/m2 BKN
12:39 18.1 °C 13.2 °C 1021.6 hPa Calm   3.2 km/h 73% 0 mm WeatherDisplay:10.37 W/m2
12:42 18.1 °C 13 °C 1021.6 hPa SW 3.7 km/h 3.7 km/h 72% 0 mm WeatherDisplay:10.37 W/m2 BKN
12:44 18.2 °C 13.3 °C 1021.6 hPa Calm   3.2 km/h 73% 0 mm WeatherDisplay:10.37 W/m2
12:47 18.3 °C 13.4 °C 1021.6 hPa NW 3.7 km/h   73% 0 mm WeatherDisplay:10.37 W/m2 BKN
12:49 18.6 °C 13.6 °C 1021.6 hPa Calm   1.6 km/h 73% 0 mm WeatherDisplay:10.37 W/m2
12:52 18.6 °C 13.2 °C 1021.6 hPa NW 3.7 km/h   71% 0 mm WeatherDisplay:10.37 W/m2 BKN
12:54 18.3 °C 13 °C 1021.6 hPa Calm   3.2 km/h 71% 0 mm WeatherDisplay:10.37 W/m2
12:59 18 °C 12.7 °C 1021.6 hPa Calm   4.8 km/h 71% 0 mm WeatherDisplay:10.37 W/m2
13:03 17.9 °C 12.8 °C 1021.6 hPa East 5.6 km/h 5.6 km/h 72% 0 mm WeatherDisplay:10.37 W/m2 BKN
13:04 17.9 °C 12.8 °C 1021.6 hPa Calm   3.2 km/h 72% 0 mm WeatherDisplay:10.37 W/m2
13:08 17.9 °C 13.1 °C 1021.6 hPa East 3.7 km/h 3.7 km/h 73% 0 mm WeatherDisplay:10.37 W/m2 BKN
13:09 17.9 °C 12.8 °C 1021.6 hPa Calm   1.6 km/h 72% 0 mm WeatherDisplay:10.37 W/m2
13:14 18 °C 12.9 °C 1021.2 hPa Calm     72% 0 mm WeatherDisplay:10.37 W/m2
13:18 18.1 °C 12.8 °C 1021.2 hPa ENE 1.9 km/h   71% 0 mm WeatherDisplay:10.37 W/m2 BKN
13:19 18.1 °C 12.8 °C 1021.2 hPa East 1.6 km/h 4.8 km/h 71% 0 mm WeatherDisplay:10.37 W/m2
13:23 18.1 °C 13 °C 1021.2 hPa ENE 5.6 km/h 5.6 km/h 72% 0 mm WeatherDisplay:10.37 W/m2 BKN
13:24 18.2 °C 12.8 °C 1021.2 hPa Calm   1.6 km/h 71% 0 mm WeatherDisplay:10.37 W/m2
13:28 18.1 °C 12.8 °C 1021.2 hPa SE 5.6 km/h   71% 0 mm WeatherDisplay:10.37 W/m2 BKN
13:29 18.1 °C 12.6 °C 1021.2 hPa Calm   1.6 km/h 70% 0 mm WeatherDisplay:10.37 W/m2
13:33 18.1 °C 12.8 °C 1021.2 hPa South 1.9 km/h   71% 0 mm WeatherDisplay:10.37 W/m2 BKN
13:34 18.2 °C 12.6 °C 1021.2 hPa Calm     70% 0 mm WeatherDisplay:10.37 W/m2
13:38 18.3 °C 13.2 °C 1020.9 hPa SSW 1.9 km/h   72% 0 mm WeatherDisplay:10.37 W/m2 BKN
13:39 18.4 °C 13.2 °C 1020.9 hPa Calm     72% 0 mm WeatherDisplay:10.37 W/m2
13:43 18.6 °C 13.2 °C 1020.9 hPa Calm     71% 0 mm WeatherDisplay:10.37 W/m2 BKN
13:44 18.6 °C 13.1 °C 1020.9 hPa Calm     70% 0 mm WeatherDisplay:10.37 W/m2
13:48 18.7 °C 12.9 °C 1020.9 hPa WSW 7.4 km/h 7.4 km/h 69% 0 mm WeatherDisplay:10.37 W/m2 BKN
13:49 18.7 °C 13.1 °C 1020.9 hPa Calm   6.4 km/h 70% 0 mm WeatherDisplay:10.37 W/m2
13:53 18.6 °C 13.2 °C 1020.9 hPa WSW 7.4 km/h   71% 0 mm WeatherDisplay:10.37 W/m2 BKN
13:54 18.6 °C 13.2 °C 1020.9 hPa Calm   1.6 km/h 71% 0 mm WeatherDisplay:10.37 W/m2
13:59 18.5 °C 12.9 °C 1020.9 hPa Calm   4.8 km/h 70% 0 mm WeatherDisplay:10.37 W/m2
14:04 18.6 °C 13 °C 1020.9 hPa SE 5.6 km/h 5.6 km/h 70% 0 mm WeatherDisplay:10.37 W/m2 BKN
14:09 18.3 °C 12.7 °C 1020.9 hPa ESE 7.4 km/h 7.4 km/h 70% 0 mm WeatherDisplay:10.37 W/m2 BKN
14:14 18.1 °C 12.8 °C 1020.9 hPa East 7.4 km/h   71% 0 mm WeatherDisplay:10.37 W/m2 BKN
14:19 18.2 °C 12.8 °C 1020.9 hPa ESE 3.7 km/h   71% 0 mm WeatherDisplay:10.37 W/m2 BKN
14:24 18.3 °C 13.2 °C 1020.9 hPa SSE 3.7 km/h 3.7 km/h 72% 0 mm WeatherDisplay:10.37 W/m2 BKN
14:29 18.6 °C 13.2 °C 1020.9 hPa SW 3.7 km/h   71% 0 mm WeatherDisplay:10.37 W/m2 BKN
14:34 18.6 °C 12.8 °C 1020.5 hPa WSW 3.7 km/h   69% 0 mm WeatherDisplay:10.37 W/m2 BKN
14:39 18.6 °C 12.6 °C 1020.9 hPa Calm   1.6 km/h 68% 0 mm WeatherDisplay:10.37 W/m2
14:49 18.5 °C 12.9 °C 1020.5 hPa Calm   3.2 km/h 70% 0 mm WeatherDisplay:10.37 W/m2
14:54 18.5 °C 12.7 °C 1020.9 hPa Calm   4.8 km/h 69% 0 mm WeatherDisplay:10.37 W/m2
14:59 18.5 °C 12.7 °C 1020.9 hPa Calm   1.6 km/h 69% 0 mm WeatherDisplay:10.37 W/m2
15:00 18.5 °C 12.7 °C 1020.9 hPa South 5.6 km/h 5.6 km/h 69% 0 mm WeatherDisplay:10.37 W/m2 BKN
15:04 18.3 °C 12.3 °C 1020.9 hPa Calm   3.2 km/h 68% 0 mm WeatherDisplay:10.37 W/m2
15:09 18.1 °C 12.3 °C 1020.9 hPa Calm   1.6 km/h 69% 0 mm WeatherDisplay:10.37 W/m2
15:10 18.2 °C 12.4 °C 1020.9 hPa Calm   1.6 km/h 69% 0 mm WeatherDisplay:10.37 W/m2 BKN
15:14 18.1 °C 12.5 °C 1020.5 hPa Calm     70% 0 mm WeatherDisplay:10.37 W/m2
15:15 18.1 °C 12.5 °C 1020.5 hPa East 3.7 km/h   70% 0 mm WeatherDisplay:10.37 W/m2 BKN
15:19 18.2 °C 12.8 °C 1020.5 hPa Calm     71% 0 mm WeatherDisplay:10.37 W/m2
15:20 18.1 °C 12.8 °C 1020.5 hPa Calm     71% 0 mm WeatherDisplay:10.37 W/m2 BKN
15:24 18.2 °C 12.8 °C 1020.2 hPa Calm     71% 0 mm WeatherDisplay:10.37 W/m2
15:25 18.2 °C 12.8 °C 1020.2 hPa Calm     71% 0 mm WeatherDisplay:10.37 W/m2 BKN
15:29 18.3 °C 12.9 °C 1020.2 hPa Calm     71% 0 mm WeatherDisplay:10.37 W/m2
15:34 18.2 °C 12.6 °C 1020.2 hPa Calm     70% 0 mm WeatherDisplay:10.37 W/m2
15:39 18.1 °C 12.8 °C 1020.2 hPa Calm     71% 0 mm WeatherDisplay:10.37 W/m2
15:40 18.1 °C 12.8 °C 1020.2 hPa Calm     71% 0 mm WeatherDisplay:10.37 W/m2 BKN
15:44 18.1 °C 12.3 °C 1020.2 hPa Calm     69% 0 mm WeatherDisplay:10.37 W/m2
15:45 18.1 °C 12.3 °C 1020.2 hPa Calm     69% 0 mm WeatherDisplay:10.37 W/m2 BKN
15:49 18.1 °C 12.3 °C 1020.2 hPa Calm   1.6 km/h 69% 0 mm WeatherDisplay:10.37 W/m2
15:50 18.1 °C 12.3 °C 1020.2 hPa East 1.9 km/h   69% 0 mm WeatherDisplay:10.37 W/m2 BKN
15:54 18 °C 12.4 °C 1020.2 hPa Calm     70% 0 mm WeatherDisplay:10.37 W/m2
15:55 18 °C 12.4 °C 1020.2 hPa East 1.9 km/h   70% 0 mm WeatherDisplay:10.37 W/m2 BKN
15:59 17.9 °C 12.3 °C 1020.2 hPa Calm     70% 0 mm WeatherDisplay:10.37 W/m2
16:00 17.9 °C 12.3 °C 1020.2 hPa Calm     70% 0 mm WeatherDisplay:10.37 W/m2 BKN
16:04 17.8 °C 12.4 °C 1020.5 hPa Calm     71% 0 mm WeatherDisplay:10.37 W/m2
16:09 17.6 °C 12.5 °C 1020.2 hPa Calm     72% 0 mm WeatherDisplay:10.37 W/m2
16:14 17.5 °C 12.2 °C 1020.5 hPa Calm     71% 0 mm WeatherDisplay:10.37 W/m2
16:19 17.4 °C 12.3 °C 1020.5 hPa Calm     72% 0 mm WeatherDisplay:10.37 W/m2
16:21 17.3 °C 12.2 °C 1020.5 hPa Calm     72% 0 mm WeatherDisplay:10.37 W/m2 SCT
16:26 17.2 °C 12.1 °C 1020.5 hPa Calm     72% 0 mm WeatherDisplay:10.37 W/m2 SCT
16:29 17.2 °C 12.3 °C 1020.5 hPa Calm     73% 0 mm WeatherDisplay:10.37 W/m2
16:31 17.2 °C 12.3 °C 1020.5 hPa Calm     73% 0 mm WeatherDisplay:10.37 W/m2 SCT
16:34 17.2 °C 12.1 °C 1020.5 hPa Calm     72% 0 mm WeatherDisplay:10.37 W/m2
16:36 17.2 °C 12.1 °C 1020.5 hPa Calm     72% 0 mm WeatherDisplay:10.37 W/m2 SCT
16:39 17.2 °C 12.1 °C 1020.5 hPa Calm     72% 0 mm WeatherDisplay:10.37 W/m2
16:40 17.2 °C 12.1 °C 1020.5 hPa Calm     72% 0 mm WeatherDisplay:10.37 W/m2 SCT
16:44 17.1 °C 12.2 °C 1020.5 hPa Calm     73% 0 mm WeatherDisplay:10.37 W/m2
16:45 17.1 °C 12.2 °C 1020.5 hPa Calm     73% 0 mm WeatherDisplay:10.37 W/m2 SCT
16:49 16.9 °C 12.2 °C 1020.5 hPa Calm     74% 0 mm WeatherDisplay:10.37 W/m2
16:50 16.9 °C 12.2 °C 1020.5 hPa Calm     74% 0 mm WeatherDisplay:10.37 W/m2 SCT
16:59 16.6 °C 12.2 °C 1020.9 hPa Calm     75% 0 mm WeatherDisplay:10.37 W/m2
17:00 16.6 °C 12.3 °C 1020.9 hPa Calm     76% 0 mm WeatherDisplay:10.37 W/m2 SCT
17:04 16.5 °C 12.1 °C 1020.9 hPa Calm     75% 0 mm WeatherDisplay:10.37 W/m2
17:05 16.5 °C 12.3 °C 1020.9 hPa Calm     76% 0 mm WeatherDisplay:10.37 W/m2 BKN
17:09 16.4 °C 12.2 °C 1020.9 hPa Calm     76% 0 mm WeatherDisplay:10.37 W/m2
17:10 16.4 °C 12.2 °C 1020.9 hPa Calm     76% 0 mm WeatherDisplay:10.37 W/m2 BKN
17:14 16.3 °C 12.3 °C 1020.9 hPa Calm     77% 0 mm WeatherDisplay:10.37 W/m2
17:16 16.3 °C 12.3 °C 1020.9 hPa Calm     77% 0 mm WeatherDisplay:10.37 W/m2 BKN
17:19 16.3 °C 12.2 °C 1020.9 hPa Calm     77% 0 mm WeatherDisplay:10.37 W/m2
17:26 16.1 °C 12.3 °C 1020.9 hPa Calm     78% 0 mm WeatherDisplay:10.37 W/m2 BKN
17:29 16 °C 12.2 °C 1020.9 hPa Calm     78% 0 mm WeatherDisplay:10.37 W/m2
17:31 16 °C 12.2 °C 1020.9 hPa Calm     78% 0 mm WeatherDisplay:10.37 W/m2 BKN
17:34 15.8 °C 12 °C 1020.9 hPa Calm     78% 0 mm WeatherDisplay:10.37 W/m2
17:39 15.7 °C 12.1 °C 1020.9 hPa Calm     79% 0 mm WeatherDisplay:10.37 W/m2
17:41 15.7 °C 12.1 °C 1020.9 hPa Calm     79% 0 mm WeatherDisplay:10.37 W/m2 BKN
17:44 15.6 °C 11.9 °C 1020.9 hPa Calm     79% 0 mm WeatherDisplay:10.37 W/m2
17:46 15.5 °C 11.9 °C 1020.9 hPa Calm     79% 0 mm WeatherDisplay:10.37 W/m2 BKN
17:49 15.4 °C 11.8 °C 1020.9 hPa Calm     79% 0 mm WeatherDisplay:10.37 W/m2
17:54 15.2 °C 11.6 °C 1020.9 hPa Calm     79% 0 mm WeatherDisplay:10.37 W/m2
17:56 15.2 °C 11.6 °C 1020.9 hPa Calm     79% 0 mm WeatherDisplay:10.37 W/m2 BKN
17:59 15.1 °C 11.6 °C 1020.9 hPa Calm     80% 0 mm WeatherDisplay:10.37 W/m2
18:01 15 °C 11.6 °C 1020.9 hPa Calm     80% 0 mm WeatherDisplay:10.37 W/m2 SCT
18:04 14.8 °C 11.3 °C 1020.9 hPa Calm     80% 0 mm WeatherDisplay:10.37 W/m2
18:06 14.8 °C 11.3 °C 1020.9 hPa Calm     80% 0 mm WeatherDisplay:10.37 W/m2 SCT
18:09 14.7 °C 11.3 °C 1020.9 hPa Calm     80% 0 mm WeatherDisplay:10.37 W/m2
18:11 14.7 °C 11.3 °C 1020.9 hPa Calm     80% 0 mm WeatherDisplay:10.37 W/m2 SCT
18:14 14.6 °C 11.2 °C 1020.9 hPa Calm     80% 0 mm WeatherDisplay:10.37 W/m2
18:16 14.6 °C 11.2 °C 1020.9 hPa Calm     80% 0 mm WeatherDisplay:10.37 W/m2 SCT
18:19 14.4 °C 11.2 °C 1020.9 hPa Calm     81% 0 mm WeatherDisplay:10.37 W/m2
18:24 14.2 °C 11.2 °C 1020.9 hPa Calm     82% 0 mm WeatherDisplay:10.37 W/m2
18:29 14 °C 11 °C 1020.9 hPa Calm     82% 0 mm WeatherDisplay:10.37 W/m2
18:32 13.9 °C 10.9 °C 1020.9 hPa Calm     82% 0 mm WeatherDisplay:10.37 W/m2 SCT
18:34 13.8 °C 11 °C 1020.9 hPa Calm     83% 0 mm WeatherDisplay:10.37 W/m2
18:37 13.8 °C 10.9 °C 1021.2 hPa Calm     83% 0 mm WeatherDisplay:10.37 W/m2 SCT
18:39 13.7 °C 10.8 °C 1021.2 hPa Calm     83% 0 mm WeatherDisplay:10.37 W/m2
18:42 13.6 °C 10.9 °C 1021.2 hPa Calm     84% 0 mm WeatherDisplay:10.37 W/m2 SCT
18:44 13.5 °C 10.8 °C 1021.2 hPa Calm     84% 0 mm WeatherDisplay:10.37 W/m2
18:49 13.4 °C 10.7 °C 1021.2 hPa Calm     84% 0 mm WeatherDisplay:10.37 W/m2
18:54 13.2 °C 10.8 °C 1021.2 hPa Calm     85% 0 mm WeatherDisplay:10.37 W/m2
18:57 13.2 °C 10.7 °C 1021.2 hPa Calm     85% 0 mm WeatherDisplay:10.37 W/m2 SCT
19:02 13 °C 10.7 °C 1021.2 hPa Calm     86% 0 mm WeatherDisplay:10.37 W/m2 SCT
19:04 12.9 °C 10.7 °C 1021.6 hPa Calm     86% 0 mm WeatherDisplay:10.37 W/m2
19:07 12.8 °C 10.6 °C 1021.6 hPa Calm     86% 0 mm WeatherDisplay:10.37 W/m2 SCT
19:09 12.8 °C 10.5 °C 1021.6 hPa Calm     86% 0 mm WeatherDisplay:10.37 W/m2
19:12 12.7 °C 10.4 °C 1021.6 hPa Calm     86% 0 mm WeatherDisplay:10.37 W/m2 SCT
19:14 12.7 °C 10.6 °C 1021.6 hPa Calm     87% 0 mm WeatherDisplay:10.37 W/m2
19:19 12.7 °C 10.6 °C 1021.6 hPa Calm     87% 0 mm WeatherDisplay:10.37 W/m2
19:22 12.6 °C 10.5 °C 1021.6 hPa Calm     87% 0 mm WeatherDisplay:10.37 W/m2 SCT
19:24 12.6 °C 10.5 °C 1021.6 hPa Calm     87% 0 mm WeatherDisplay:10.37 W/m2
19:27 12.6 °C 10.5 °C 1021.6 hPa Calm     87% 0 mm WeatherDisplay:10.37 W/m2 SCT
19:29 12.6 °C 10.5 °C 1021.6 hPa Calm     87% 0 mm WeatherDisplay:10.37 W/m2
19:33 12.6 °C 10.4 °C 1021.6 hPa Calm     87% 0 mm WeatherDisplay:10.37 W/m2 SCT
19:34 12.6 °C 10.4 °C 1021.6 hPa Calm     87% 0 mm WeatherDisplay:10.37 W/m2
19:38 12.5 °C 10.4 °C 1021.6 hPa Calm     87% 0 mm WeatherDisplay:10.37 W/m2 SCT
19:39 12.5 °C 10.6 °C 1021.6 hPa Calm     88% 0 mm WeatherDisplay:10.37 W/m2
19:43 12.5 °C 10.6 °C 1021.6 hPa Calm     88% 0 mm WeatherDisplay:10.37 W/m2 SCT
19:44 12.5 °C 10.6 °C 1021.6 hPa Calm     88% 0 mm WeatherDisplay:10.37 W/m2
19:48 12.4 °C 10.5 °C 1021.6 hPa Calm     88% 0 mm WeatherDisplay:10.37 W/m2 SCT
19:49 12.4 °C 10.4 °C 1021.6 hPa Calm     88% 0 mm WeatherDisplay:10.37 W/m2
19:53 12.4 °C 10.4 °C 1021.6 hPa Calm     88% 0 mm WeatherDisplay:10.37 W/m2 SCT
19:54 12.3 °C 10.4 °C 1021.6 hPa Calm     88% 0 mm WeatherDisplay:10.37 W/m2
19:58 12.3 °C 10.3 °C 1021.9 hPa Calm     88% 0 mm WeatherDisplay:10.37 W/m2 SCT
19:59 12.2 °C 10.3 °C 1021.9 hPa Calm     88% 0 mm WeatherDisplay:10.37 W/m2
20:03 12.2 °C 10.3 °C 1021.6 hPa Calm     88% 0 mm WeatherDisplay:10.37 W/m2 SCT
20:08 12.4 °C 10.6 °C 1021.9 hPa Calm     89% 0 mm WeatherDisplay:10.37 W/m2 SCT
20:09 12.4 °C 10.5 °C 1021.9 hPa Calm     88% 0 mm WeatherDisplay:10.37 W/m2
20:10 12.4 °C 10.4 °C 1021.9 hPa Calm     88% 0 mm WeatherDisplay:10.37 W/m2 SCT
20:14 12.4 °C 10.4 °C 1021.9 hPa Calm     88% 0 mm WeatherDisplay:10.37 W/m2
20:15 12.3 °C 10.4 °C 1021.9 hPa Calm     88% 0 mm WeatherDisplay:10.37 W/m2 SCT
20:19 12.2 °C 10.3 °C 1021.9 hPa Calm     88% 0 mm WeatherDisplay:10.37 W/m2
20:20 12.2 °C 10.3 °C 1021.9 hPa Calm     88% 0 mm WeatherDisplay:10.37 W/m2 SCT
20:24 12.1 °C 10.2 °C 1021.9 hPa Calm     88% 0 mm WeatherDisplay:10.37 W/m2
20:25 12.1 °C 10.2 °C 1021.9 hPa Calm     88% 0 mm WeatherDisplay:10.37 W/m2 SCT
20:29 12 °C 10.1 °C 1021.9 hPa Calm     88% 0 mm WeatherDisplay:10.37 W/m2
20:30 12 °C 10.1 °C 1021.9 hPa Calm     88% 0 mm WeatherDisplay:10.37 W/m2 SCT
20:34 11.9 °C 9.9 °C 1021.9 hPa Calm     88% 0 mm WeatherDisplay:10.37 W/m2
20:36 11.8 °C 9.9 °C 1021.9 hPa Calm     88% 0 mm WeatherDisplay:10.37 W/m2 SCT
20:39 11.9 °C 10.1 °C 1021.9 hPa Calm     89% 0 mm WeatherDisplay:10.37 W/m2
20:41 11.9 °C 10.1 °C 1021.9 hPa Calm     89% 0 mm WeatherDisplay:10.37 W/m2 SCT
20:44 11.9 °C 10.2 °C 1021.9 hPa Calm     89% 0 mm WeatherDisplay:10.37 W/m2
20:49 11.9 °C 10.1 °C 1021.9 hPa Calm     89% 0 mm WeatherDisplay:10.37 W/m2
20:56 11.8 °C 10 °C 1021.9 hPa Calm     89% 0 mm WeatherDisplay:10.37 W/m2 SCT
20:59 11.7 °C 9.9 °C 1021.9 hPa Calm     89% 0 mm WeatherDisplay:10.37 W/m2
21:01 11.7 °C 10.1 °C 1022.2 hPa Calm     90% 0 mm WeatherDisplay:10.37 W/m2 BKN
21:06 11.8 °C 10.2 °C 1022.2 hPa Calm     90% 0 mm WeatherDisplay:10.37 W/m2 BKN
21:09 11.9 °C 10.3 °C 1022.2 hPa Calm     90% 0 mm WeatherDisplay:10.37 W/m2
21:16 12.1 °C 10.4 °C 1022.2 hPa Calm     90% 0 mm WeatherDisplay:10.37 W/m2 BKN
21:19 12.3 °C 10.8 °C 1022.2 hPa Calm     91% 0 mm WeatherDisplay:10.37 W/m2
21:21 12.3 °C 10.9 °C 1022.2 hPa Calm     91% 0 mm WeatherDisplay:10.37 W/m2 BKN
21:24 12.6 °C 11 °C 1022.2 hPa Calm     90% 0 mm WeatherDisplay:10.37 W/m2
21:26 12.7 °C 11.1 °C 1022.2 hPa Calm     90% 0 mm WeatherDisplay:10.37 W/m2 BKN
21:29 12.9 °C 11.2 °C 1022.2 hPa Calm     89% 0 mm WeatherDisplay:10.37 W/m2
21:31 12.9 °C 11 °C 1022.2 hPa Calm     88% 0 mm WeatherDisplay:10.37 W/m2 BKN
21:34 13.1 °C 11.2 °C 1022.2 hPa Calm     88% 0 mm WeatherDisplay:10.37 W/m2
21:36 13.1 °C 11.2 °C 1022.2 hPa Calm     88% 0 mm WeatherDisplay:10.37 W/m2 BKN
21:39 13.2 °C 11.1 °C 1022.2 hPa Calm     87% 0 mm WeatherDisplay:10.37 W/m2
21:44 13.3 °C 11.2 °C 1022.2 hPa Calm     87% 0 mm WeatherDisplay:10.37 W/m2
21:47 13.3 °C 11.2 °C 1022.2 hPa Calm     87% 0 mm WeatherDisplay:10.37 W/m2 BKN
21:49 13.3 °C 11 °C 1022.2 hPa Calm     86% 0 mm WeatherDisplay:10.37 W/m2
21:52 13.3 °C 11 °C 1022.2 hPa Calm     86% 0 mm WeatherDisplay:10.37 W/m2 BKN
21:54 13.2 °C 10.9 °C 1022.6 hPa Calm     86% 0 mm WeatherDisplay:10.37 W/m2
21:57 13.1 °C 10.8 °C 1022.6 hPa Calm     86% 0 mm WeatherDisplay:10.37 W/m2 BKN
21:59 13 °C 10.7 °C 1022.6 hPa Calm     86% 0 mm WeatherDisplay:10.37 W/m2
22:02 12.9 °C 10.8 °C 1022.6 hPa Calm     87% 0 mm WeatherDisplay:10.37 W/m2 BKN
22:04 12.9 °C 10.8 °C 1022.6 hPa Calm     87% 0 mm WeatherDisplay:10.37 W/m2
22:07 12.8 °C 10.7 °C 1022.6 hPa Calm     87% 0 mm WeatherDisplay:10.37 W/m2 BKN
22:09 12.8 °C 10.7 °C 1022.6 hPa Calm     87% 0 mm WeatherDisplay:10.37 W/m2
22:14 12.7 °C 10.8 °C 1022.6 hPa Calm     88% 0 mm WeatherDisplay:10.37 W/m2
22:17 12.7 °C 10.8 °C 1022.6 hPa Calm     88% 0 mm WeatherDisplay:10.37 W/m2 BKN
22:19 12.7 °C 10.8 °C 1022.6 hPa Calm     88% 0 mm WeatherDisplay:10.37 W/m2
22:29 12.6 °C 10.7 °C 1022.6 hPa Calm     88% 0 mm WeatherDisplay:10.37 W/m2
22:34 12.5 °C 10.6 °C 1022.6 hPa Calm     88% 0 mm WeatherDisplay:10.37 W/m2 BKN
22:39 12.4 °C 10.4 °C 1022.6 hPa Calm     88% 0 mm WeatherDisplay:10.37 W/m2 BKN
22:44 12.2 °C 10.3 °C 1022.6 hPa Calm     88% 0 mm WeatherDisplay:10.37 W/m2 BKN
22:49 12.1 °C 10.1 °C 1022.6 hPa Calm     88% 0 mm WeatherDisplay:10.37 W/m2 BKN
22:54 11.9 °C 9.9 °C 1022.9 hPa Calm     88% 0 mm WeatherDisplay:10.37 W/m2
23:03 11.8 °C 10 °C 1022.9 hPa Calm     89% 0 mm WeatherDisplay:10.37 W/m2 BKN
23:08 11.7 °C 9.9 °C 1022.9 hPa Calm     89% 0 mm WeatherDisplay:10.37 W/m2 BKN
23:23 11.7 °C 10.1 °C 1022.6 hPa Calm     90% 0 mm WeatherDisplay:10.37 W/m2 BKN
23:29 11.7 °C 10.1 °C 1022.6 hPa Calm     90% 0 mm WeatherDisplay:10.37 W/m2 BKN
23:34 11.6 °C 10 °C 1022.6 hPa Calm     90% 0 mm WeatherDisplay:10.37 W/m2 BKN
23:39 11.4 °C 9.9 °C 1022.6 hPa Calm     90% 0 mm WeatherDisplay:10.37 W/m2 BKN
23:44 11.3 °C 9.8 °C 1022.6 hPa Calm     90% 0 mm WeatherDisplay:10.37 W/m2 BKN
23:49 11.2 °C 9.6 °C 1022.6 hPa Calm     90% 0 mm WeatherDisplay:10.37 W/m2 BKN
23:54 11.1 °C 9.6 °C 1022.6 hPa Calm     90% 0 mm WeatherDisplay:10.37 W/m2 BKN
23:59 11 °C 9.4 °C 1022.6 hPa Calm     90% 0 mm WeatherDisplay:10.37 W/m2 BKN
Piedmont Bend
Compliments of Weather Underground - 4 mb